Time;durP1;ratioP1;P1;durP2;ratioP2;P2;SDS_P1;SDS_P2;PMS_P1;PMS_P2;Temp;Humidity;BMP_temperature;BMP_pressure;BME280_temperature;BME280_humidity;BME280_pressure;Samples;Min_cycle;Max_cycle;Signal;HPM_P1;HPM_P2
2023/01/25 00:00:49;;;;;;;15.77;4.57;;;;;;;;;;5057073;28;20064;-31
2023/01/25 00:03:15;;;;;;;10.32;4.00;;;;;;;;;;5056500;28;20059;-31
2023/01/25 00:05:41;;;;;;;17.33;4.78;;;;;;;;;;5057007;28;20037;-29
2023/01/25 00:08:07;;;;;;;25.20;4.78;;;;;;;;;;5056647;28;20041;-31
2023/01/25 00:10:33;;;;;;;11.88;4.95;;;;;;;;;;5056915;28;20364;-31
2023/01/25 00:12:59;;;;;;;13.60;4.57;;;;;;;;;;5056438;28;20040;-31
2023/01/25 00:15:25;;;;;;;16.55;4.38;;;;;;;;;;5056548;28;20025;-31
2023/01/25 00:17:52;;;;;;;12.45;4.88;;;;;;;;;;5056517;28;20021;-31
2023/01/25 00:20:18;;;;;;;14.55;4.78;;;;;;;;;;5056411;28;20487;-31
2023/01/25 00:22:44;;;;;;;11.07;4.00;;;;;;;;;;5056353;28;20021;-30
2023/01/25 00:25:10;;;;;;;17.02;7.85;;;;;;;;;;5056915;28;20053;-30
2023/01/25 00:27:36;;;;;;;11.25;3.53;;;;;;;;;;5056322;28;20033;-30
2023/01/25 00:30:03;;;;;;;10.48;4.32;;;;;;;;;;5056515;28;20033;-30
2023/01/25 00:32:37;;;;;;;10.95;3.88;;;;;;;;;;5056230;28;20025;-30
2023/01/25 00:35:03;;;;;;;6.75;5.60;;;;;;;;;;5055787;28;20025;-31
2023/01/25 00:37:35;;;;;;;7.97;4.00;;;;;;;;;;5055623;28;20033;-31
2023/01/25 00:40:01;;;;;;;11.90;3.90;;;;;;;;;;5056130;28;20086;-30
2023/01/25 00:42:27;;;;;;;16.35;3.90;;;;;;;;;;5056231;28;20021;-30
2023/01/25 00:44:53;;;;;;;10.70;4.18;;;;;;;;;;5055987;28;20025;-30
2023/01/25 00:47:20;;;;;;;9.15;3.78;;;;;;;;;;5056156;28;20067;-31
2023/01/25 00:49:46;;;;;;;12.15;4.10;;;;;;;;;;5055874;28;20457;-30
2023/01/25 00:52:12;;;;;;;8.75;4.05;;;;;;;;;;5056036;28;20044;-31
2023/01/25 00:54:38;;;;;;;10.45;4.20;;;;;;;;;;5055734;28;20361;-31
2023/01/25 00:57:05;;;;;;;8.82;3.70;;;;;;;;;;5055775;28;20025;-30
2023/01/25 00:59:32;;;;;;;12.90;4.45;;;;;;;;;;5055692;28;20365;-31
2023/01/25 01:01:58;;;;;;;10.82;3.80;;;;;;;;;;5055914;28;20025;-31
2023/01/25 01:04:25;;;;;;;7.97;4.25;;;;;;;;;;5055497;28;20053;-31
2023/01/25 01:06:52;;;;;;;10.32;4.07;;;;;;;;;;5056613;28;20028;-30
2023/01/25 01:09:18;;;;;;;9.27;4.20;;;;;;;;;;5056359;28;20057;-29
2023/01/25 01:11:45;;;;;;;8.93;3.40;;;;;;;;;;5055370;28;20150;-30
2023/01/25 01:14:11;;;;;;;6.68;4.45;;;;;;;;;;5055924;28;20056;-31
2023/01/25 01:16:38;;;;;;;10.88;4.00;;;;;;;;;;5055338;28;20511;-30
2023/01/25 01:19:04;;;;;;;9.43;4.72;;;;;;;;;;5055556;28;20044;-30
2023/01/25 01:21:30;;;;;;;11.00;4.40;;;;;;;;;;5055817;28;20029;-30
2023/01/25 01:23:57;;;;;;;8.52;4.18;;;;;;;;;;5055399;28;20025;-31
2023/01/25 01:26:23;;;;;;;17.63;6.97;;;;;;;;;;5055184;28;20029;-30
2023/01/25 01:28:49;;;;;;;5.20;4.35;;;;;;;;;;5055206;28;20482;-31
2023/01/25 01:31:17;;;;;;;11.10;5.03;;;;;;;;;;5055086;28;20091;-30
2023/01/25 01:33:43;;;;;;;10.80;4.00;;;;;;;;;;5054898;28;20056;-30
2023/01/25 01:36:10;;;;;;;8.02;4.90;;;;;;;;;;5055285;28;20348;-31
2023/01/25 01:38:36;;;;;;;5.07;3.33;;;;;;;;;;5054986;28;20027;-31
2023/01/25 01:41:03;;;;;;;8.60;4.57;;;;;;;;;;5055208;28;20040;-31
2023/01/25 01:43:29;;;;;;;6.97;4.38;;;;;;;;;;5055332;28;20076;-31
2023/01/25 01:46:03;;;;;;;6.38;4.07;;;;;;;;;;5054840;28;20057;-31
2023/01/25 01:48:34;;;;;;;7.82;4.20;;;;;;;;;;5054776;28;20029;-31
2023/01/25 01:51:02;;;;;;;7.32;4.25;;;;;;;;;;5055444;28;20401;-30
2023/01/25 01:53:30;;;;;;;7.80;3.55;;;;;;;;;;5054549;28;20040;-30
2023/01/25 01:55:58;;;;;;;8.60;4.75;;;;;;;;;;5054739;28;20032;-31
2023/01/25 01:58:25;;;;;;;12.85;4.28;;;;;;;;;;5054628;28;20029;-30
2023/01/25 02:00:51;;;;;;;8.55;3.38;;;;;;;;;;5054689;28;20029;-30
2023/01/25 02:03:17;;;;;;;9.00;4.78;;;;;;;;;;5054310;28;20064;-30
2023/01/25 02:05:52;;;;;;;10.73;4.32;;;;;;;;;;5054534;28;20021;-30
2023/01/25 02:08:19;;;;;;;5.65;3.95;;;;;;;;;;5054904;28;20017;-30
2023/01/25 02:10:45;;;;;;;10.90;3.72;;;;;;;;;;5054796;28;20021;-31
2023/01/25 02:13:11;;;;;;;8.75;4.75;;;;;;;;;;5054413;28;20376;-30
2023/01/25 02:15:49;;;;;;;7.78;4.05;;;;;;;;;;5054515;28;20021;-30
2023/01/25 02:18:15;;;;;;;7.22;4.05;;;;;;;;;;5055003;28;20029;-31
2023/01/25 02:20:42;;;;;;;6.47;3.58;;;;;;;;;;5054515;28;20024;-31
2023/01/25 02:23:31;;;;;;;9.25;3.55;;;;;;;;;;5054610;28;20104;-31
2023/01/25 02:26:00;;;;;;;5.82;3.47;;;;;;;;;;5017643;28;20045;-30
2023/01/25 02:28:28;;;;;;;7.72;3.75;;;;;;;;;;5054343;28;20037;-30
2023/01/25 02:30:55;;;;;;;6.60;3.58;;;;;;;;;;5054293;28;20021;-31
2023/01/25 02:33:24;;;;;;;6.65;3.88;;;;;;;;;;5054191;28;20479;-30
2023/01/25 02:35:57;;;;;;;5.50;4.18;;;;;;;;;;5054333;28;20044;-30
2023/01/25 02:38:24;;;;;;;4.90;3.78;;;;;;;;;;5055127;28;20013;-29
2023/01/25 02:41:03;;;;;;;6.47;3.75;;;;;;;;;;5054291;28;20074;-31
2023/01/25 02:43:30;;;;;;;17.85;4.57;;;;;;;;;;5054502;28;20055;-31
2023/01/25 02:46:00;;;;;;;7.70;4.00;;;;;;;;;;5054438;28;20025;-30
2023/01/25 02:48:26;;;;;;;7.38;4.03;;;;;;;;;;5054474;28;20048;-30
2023/01/25 02:50:52;;;;;;;8.73;3.95;;;;;;;;;;5054459;28;20032;-31
2023/01/25 02:53:18;;;;;;;8.18;3.78;;;;;;;;;;5054151;28;20025;-30
2023/01/25 02:55:44;;;;;;;5.05;4.47;;;;;;;;;;5054892;28;20029;-31
2023/01/25 02:58:10;;;;;;;7.32;3.53;;;;;;;;;;5054119;28;20036;-30
2023/01/25 03:00:36;;;;;;;10.15;3.67;;;;;;;;;;5057564;28;20020;-31
2023/01/25 03:03:03;;;;;;;14.13;5.90;;;;;;;;;;5057918;28;20424;-30
2023/01/25 03:05:29;;;;;;;4.85;3.55;;;;;;;;;;5058124;28;20043;-31
2023/01/25 03:07:55;;;;;;;6.45;3.70;;;;;;;;;;5058068;28;20021;-31
2023/01/25 03:10:21;;;;;;;4.63;3.85;;;;;;;;;;5057795;28;20036;-31
2023/01/25 03:12:47;;;;;;;4.45;3.63;;;;;;;;;;5058203;28;20052;-31
2023/01/25 03:15:13;;;;;;;6.70;3.25;;;;;;;;;;5040044;28;20452;-30
2023/01/25 03:17:39;;;;;;;13.05;5.30;;;;;;;;;;5057681;28;20028;-31
2023/01/25 03:20:05;;;;;;;6.93;3.35;;;;;;;;;;5057615;28;20395;-31
2023/01/25 03:22:32;;;;;;;9.90;4.15;;;;;;;;;;5040302;28;20083;-31
2023/01/25 03:24:58;;;;;;;10.05;4.00;;;;;;;;;;5058031;28;20033;-31
2023/01/25 03:27:24;;;;;;;10.68;3.78;;;;;;;;;;5057704;28;20033;-30
2023/01/25 03:29:50;;;;;;;7.63;3.90;;;;;;;;;;5057422;28;20359;-31
2023/01/25 03:32:16;;;;;;;6.65;4.13;;;;;;;;;;5057499;28;20029;-30
2023/01/25 03:34:42;;;;;;;5.15;3.72;;;;;;;;;;5057264;28;20478;-31
2023/01/25 03:37:08;;;;;;;6.10;4.55;;;;;;;;;;5057556;28;20021;-30
2023/01/25 03:39:34;;;;;;;5.97;3.63;;;;;;;;;;5057201;28;20037;-30
2023/01/25 03:42:00;;;;;;;4.03;3.70;;;;;;;;;;5057373;28;20036;-30
2023/01/25 03:44:27;;;;;;;5.70;3.88;;;;;;;;;;5057158;28;20037;-31
2023/01/25 03:46:53;;;;;;;5.32;3.80;;;;;;;;;;5057387;28;20367;-31
2023/01/25 03:49:19;;;;;;;5.85;3.35;;;;;;;;;;5057599;28;20056;-30
2023/01/25 03:51:45;;;;;;;9.80;4.07;;;;;;;;;;5057718;28;20025;-30
2023/01/25 03:54:11;;;;;;;4.70;3.60;;;;;;;;;;5056966;28;20025;-31
2023/01/25 03:56:37;;;;;;;8.68;5.07;;;;;;;;;;5057210;28;20352;-31
2023/01/25 03:59:04;;;;;;;5.05;3.92;;;;;;;;;;5057146;28;20017;-30
2023/01/25 04:01:30;;;;;;;9.85;4.32;;;;;;;;;;5056778;28;20025;-31
2023/01/25 04:03:56;;;;;;;4.60;3.95;;;;;;;;;;5056528;28;20063;-30
2023/01/25 04:06:22;;;;;;;6.25;3.42;;;;;;;;;;5057008;28;20056;-30
2023/01/25 04:08:48;;;;;;;8.00;4.10;;;;;;;;;;5057238;28;20108;-30
2023/01/25 04:11:14;;;;;;;8.68;4.72;;;;;;;;;;5056424;28;20020;-30
2023/01/25 04:13:40;;;;;;;5.68;3.28;;;;;;;;;;5056526;28;20025;-31
2023/01/25 04:16:08;;;;;;;6.38;4.50;;;;;;;;;;5056826;28;20036;-31
2023/01/25 04:18:34;;;;;;;4.30;3.50;;;;;;;;;;5056430;28;20033;-31
2023/01/25 04:21:00;;;;;;;11.90;4.40;;;;;;;;;;5056678;28;20090;-31
2023/01/25 04:23:26;;;;;;;13.50;5.25;;;;;;;;;;5056289;28;20470;-30
2023/01/25 04:25:53;;;;;;;17.30;4.93;;;;;;;;;;5056653;28;20448;-31
2023/01/25 04:28:20;;;;;;;28.92;7.63;;;;;;;;;;5056261;28;20059;-31
2023/01/25 04:30:46;;;;;;;25.55;6.10;;;;;;;;;;5056543;28;20079;-31
2023/01/25 04:33:12;;;;;;;22.17;7.00;;;;;;;;;;5056110;28;20104;-31
2023/01/25 04:35:38;;;;;;;31.85;5.40;;;;;;;;;;5056106;28;20021;-31
2023/01/25 04:38:04;;;;;;;15.32;4.13;;;;;;;;;;5056676;28;20025;-31
2023/01/25 04:40:30;;;;;;;26.50;6.32;;;;;;;;;;5056055;28;20021;-31
2023/01/25 04:42:56;;;;;;;32.03;5.75;;;;;;;;;;5055931;28;20040;-31
2023/01/25 04:45:24;;;;;;;23.48;6.57;;;;;;;;;;5055931;28;20028;-31
2023/01/25 04:47:55;;;;;;;14.25;5.00;;;;;;;;;;5056172;28;20033;-29
2023/01/25 04:50:21;;;;;;;;;;;;;;;;;;5056611;28;20408;-29
2023/01/25 04:52:47;;;;;;;14.05;5.30;;;;;;;;;;5055927;28;19908;-30
2023/01/25 04:55:13;;;;;;;15.23;4.30;;;;;;;;;;5055668;28;20025;-31
2023/01/25 04:57:39;;;;;;;7.20;4.63;;;;;;;;;;5055972;28;20025;-30
2023/01/25 05:00:06;;;;;;;7.63;4.20;;;;;;;;;;5056185;28;20021;-31
2023/01/25 05:02:32;;;;;;;7.70;4.63;;;;;;;;;;5055285;28;20476;-31
2023/01/25 05:04:58;;;;;;;7.55;3.95;;;;;;;;;;5055834;28;20029;-32
2023/01/25 05:07:24;;;;;;;7.55;3.70;;;;;;;;;;5055684;28;20064;-31
2023/01/25 05:09:51;;;;;;;7.78;4.15;;;;;;;;;;5055951;28;20028;-32
2023/01/25 05:12:17;;;;;;;5.18;3.58;;;;;;;;;;5055296;28;20337;-32
2023/01/25 05:14:43;;;;;;;7.88;4.57;;;;;;;;;;5055501;28;20032;-31
2023/01/25 05:17:09;;;;;;;4.07;3.65;;;;;;;;;;5055471;28;20028;-32
2023/01/25 05:19:36;;;;;;;6.13;4.20;;;;;;;;;;5055768;28;20344;-31
2023/01/25 05:22:06;;;;;;;13.57;4.88;;;;;;;;;;5054766;28;20044;-31
2023/01/25 05:24:32;;;;;;;6.82;4.65;;;;;;;;;;5055935;28;20048;-31
2023/01/25 05:26:59;;;;;;;4.20;3.70;;;;;;;;;;5055825;28;20537;-31
2023/01/25 05:29:25;;;;;;;8.10;4.20;;;;;;;;;;5055328;28;20029;-31
2023/01/25 05:31:51;;;;;;;9.90;4.95;;;;;;;;;;5055162;28;20373;-30
2023/01/25 05:34:17;;;;;;;6.65;5.13;;;;;;;;;;5055156;28;20060;-31
2023/01/25 05:36:43;;;;;;;12.82;4.30;;;;;;;;;;5055054;28;20337;-30
2023/01/25 05:39:10;;;;;;;9.85;4.55;;;;;;;;;;5055168;28;20020;-31
2023/01/25 05:41:36;;;;;;;10.90;4.13;;;;;;;;;;5054769;28;20071;-31
2023/01/25 05:44:02;;;;;;;8.90;4.60;;;;;;;;;;5054749;28;20025;-32
2023/01/25 05:46:28;;;;;;;9.15;4.22;;;;;;;;;;5054764;28;20020;-31
2023/01/25 05:48:54;;;;;;;11.02;4.30;;;;;;;;;;5054744;28;20447;-32
2023/01/25 05:51:20;;;;;;;8.13;4.25;;;;;;;;;;5054980;28;20099;-32
2023/01/25 05:53:47;;;;;;;14.27;4.63;;;;;;;;;;5054477;28;20118;-32
2023/01/25 05:56:13;;;;;;;8.32;4.07;;;;;;;;;;5054800;28;20025;-32
2023/01/25 05:58:39;;;;;;;12.63;4.18;;;;;;;;;;5054543;28;20025;-33
2023/01/25 06:01:06;;;;;;;15.13;4.40;;;;;;;;;;5054380;28;20017;-30
2023/01/25 06:03:33;;;;;;;12.52;4.07;;;;;;;;;;5053955;28;20107;-31
2023/01/25 06:06:03;;;;;;;17.98;4.57;;;;;;;;;;5036983;28;20059;-32
2023/01/25 06:08:32;;;;;;;4.93;3.97;;;;;;;;;;5054372;28;20028;-32
2023/01/25 06:10:58;;;;;;;10.13;4.60;;;;;;;;;;5055103;28;20040;-31
2023/01/25 06:13:24;;;;;;;11.43;4.45;;;;;;;;;;5054443;28;20068;-31
2023/01/25 06:15:54;;;;;;;16.02;5.22;;;;;;;;;;5054409;28;20033;-31
2023/01/25 06:18:20;;;;;;;11.90;5.05;;;;;;;;;;5054506;28;20403;-31
2023/01/25 06:20:46;;;;;;;7.90;3.92;;;;;;;;;;5054474;28;20031;-32
2023/01/25 06:23:13;;;;;;;4.88;4.30;;;;;;;;;;5054329;28;20032;-30
2023/01/25 06:25:39;;;;;;;8.80;4.63;;;;;;;;;;5054393;28;20021;-30
2023/01/25 06:28:05;;;;;;;12.95;5.68;;;;;;;;;;5055124;28;20025;-31
2023/01/25 06:30:31;;;;;;;21.38;5.30;;;;;;;;;;5054295;28;20044;-32
2023/01/25 06:32:58;;;;;;;12.48;4.78;;;;;;;;;;5055101;28;20033;-31
2023/01/25 06:35:24;;;;;;;10.13;4.75;;;;;;;;;;5058278;28;20017;-30
2023/01/25 06:37:51;;;;;;;13.13;5.22;;;;;;;;;;5040745;28;20039;-31
2023/01/25 06:40:17;;;;;;;11.25;5.05;;;;;;;;;;5058835;28;20035;-31
2023/01/25 06:42:44;;;;;;;13.77;4.40;;;;;;;;;;5058435;28;20040;-31
2023/01/25 06:45:10;;;;;;;16.60;4.90;;;;;;;;;;5058453;28;20462;-31
2023/01/25 06:47:36;;;;;;;7.55;4.72;;;;;;;;;;5058400;28;20029;-31
2023/01/25 06:50:03;;;;;;;10.07;5.50;;;;;;;;;;5058569;28;20121;-32
2023/01/25 06:52:30;;;;;;;18.45;4.95;;;;;;;;;;5057919;28;20041;-32
2023/01/25 06:54:57;;;;;;;9.63;5.05;;;;;;;;;;5057911;28;20077;-32
2023/01/25 06:57:23;;;;;;;9.07;4.95;;;;;;;;;;5058611;28;20367;-31
2023/01/25 06:59:49;;;;;;;14.40;5.95;;;;;;;;;;5057958;28;20021;-32
2023/01/25 07:02:15;;;;;;;15.20;5.38;;;;;;;;;;5057832;28;20021;-31
2023/01/25 07:04:42;;;;;;;14.10;4.78;;;;;;;;;;5058377;28;20025;-31
2023/01/25 07:07:08;;;;;;;15.75;5.22;;;;;;;;;;5057725;28;20060;-31
2023/01/25 07:09:35;;;;;;;16.45;4.55;;;;;;;;;;5040036;28;20174;-31
2023/01/25 07:12:03;;;;;;;12.88;5.13;;;;;;;;;;5057573;28;20448;-32
2023/01/25 07:14:30;;;;;;;13.80;5.38;;;;;;;;;;5058338;28;20115;-32
2023/01/25 07:16:56;;;;;;;8.18;4.32;;;;;;;;;;5057662;28;20025;-31
2023/01/25 07:19:22;;;;;;;13.85;5.22;;;;;;;;;;5057794;28;20058;-30
2023/01/25 07:21:48;;;;;;;18.15;6.13;;;;;;;;;;5057467;28;20351;-30
2023/01/25 07:24:16;;;;;;;18.52;5.10;;;;;;;;;;5057715;28;20403;-31
2023/01/25 07:26:42;;;;;;;14.48;5.38;;;;;;;;;;5057780;28;20025;-31
2023/01/25 07:29:11;;;;;;;13.63;4.93;;;;;;;;;;5057651;28;20040;-31
2023/01/25 07:31:37;;;;;;;19.05;5.72;;;;;;;;;;5057348;28;20452;-31
2023/01/25 07:34:03;;;;;;;17.88;4.95;;;;;;;;;;5057191;28;20032;-31
2023/01/25 07:36:30;;;;;;;12.13;4.57;;;;;;;;;;5057866;28;20036;-33
2023/01/25 07:38:57;;;;;;;20.33;5.57;;;;;;;;;;5057226;28;20059;-32
2023/01/25 07:41:24;;;;;;;15.85;5.90;;;;;;;;;;5057032;28;20075;-31
2023/01/25 07:43:50;;;;;;;7.95;5.22;;;;;;;;;;5057302;28;20116;-29
2023/01/25 07:46:17;;;;;;;13.27;6.25;;;;;;;;;;5038731;28;20108;-30
2023/01/25 07:48:47;;;;;;;14.10;6.03;;;;;;;;;;5056971;28;20056;-30
2023/01/25 07:51:21;;;;;;;10.82;5.25;;;;;;;;;;5057168;28;20043;-32
2023/01/25 07:53:48;;;;;;;8.30;4.90;;;;;;;;;;5056805;28;20028;-32
2023/01/25 07:56:15;;;;;;;15.93;5.35;;;;;;;;;;5056791;28;20029;-31
2023/01/25 07:58:41;;;;;;;16.13;5.60;;;;;;;;;;5057070;28;20357;-31
2023/01/25 08:01:08;;;;;;;14.68;5.95;;;;;;;;;;5056970;28;20024;-33
2023/01/25 08:03:35;;;;;;;14.45;4.72;;;;;;;;;;5056394;28;20124;-32
2023/01/25 08:06:04;;;;;;;13.57;4.93;;;;;;;;;;5056632;28;20055;-31
2023/01/25 08:08:32;;;;;;;18.15;5.53;;;;;;;;;;5056812;28;20036;-31
2023/01/25 08:10:59;;;;;;;18.92;5.55;;;;;;;;;;5056513;28;20139;-31
2023/01/25 08:13:25;;;;;;;31.98;8.65;;;;;;;;;;5056539;28;20452;-31
2023/01/25 08:15:55;;;;;;;13.77;6.80;;;;;;;;;;5056707;28;20379;-32
2023/01/25 08:18:21;;;;;;;15.93;5.93;;;;;;;;;;5056401;28;20029;-31
2023/01/25 08:20:48;;;;;;;11.45;5.68;;;;;;;;;;5056327;28;20093;-31
2023/01/25 08:23:14;;;;;;;20.40;5.68;;;;;;;;;;5056216;28;20102;-32
2023/01/25 08:25:40;;;;;;;24.63;6.15;;;;;;;;;;5056464;28;20057;-32
2023/01/25 08:28:06;;;;;;;21.63;5.72;;;;;;;;;;5056515;28;20029;-32
2023/01/25 08:30:33;;;;;;;13.43;5.47;;;;;;;;;;5056488;28;20025;-31
2023/01/25 08:32:59;;;;;;;18.38;5.05;;;;;;;;;;5056119;28;20095;-33
2023/01/25 08:35:25;;;;;;;15.70;5.22;;;;;;;;;;5056265;28;20063;-29
2023/01/25 08:37:51;;;;;;;15.77;6.00;;;;;;;;;;5056100;28;20039;-31
2023/01/25 08:40:17;;;;;;;12.98;5.20;;;;;;;;;;5055977;28;20021;-31
2023/01/25 08:42:44;;;;;;;17.80;5.60;;;;;;;;;;5038441;28;20044;-31
2023/01/25 08:45:10;;;;;;;13.02;5.82;;;;;;;;;;5055973;28;20356;-31
2023/01/25 08:47:36;;;;;;;18.70;6.03;;;;;;;;;;5056171;28;20033;-32
2023/01/25 08:50:02;;;;;;;15.23;4.93;;;;;;;;;;5055775;28;20428;-31
2023/01/25 08:52:28;;;;;;;15.68;5.95;;;;;;;;;;5055889;28;20057;-32
2023/01/25 08:54:55;;;;;;;16.20;5.97;;;;;;;;;;5055555;28;20036;-32
2023/01/25 08:57:21;;;;;;;10.82;5.82;;;;;;;;;;5054585;28;20039;-30
2023/01/25 08:59:47;;;;;;;13.07;5.95;;;;;;;;;;5055606;28;20068;-31
2023/01/25 09:02:13;;;;;;;15.27;5.28;;;;;;;;;;5055122;28;20017;-30
2023/01/25 09:04:39;;;;;;;21.17;7.65;;;;;;;;;;5055819;28;20102;-31
2023/01/25 09:07:06;;;;;;;10.02;6.22;;;;;;;;;;5055422;28;20033;-30
2023/01/25 09:09:32;;;;;;;14.02;5.88;;;;;;;;;;5055404;28;20207;-33
2023/01/25 09:11:58;;;;;;;12.50;6.88;;;;;;;;;;5055832;28;20025;-31
2023/01/25 09:14:25;;;;;;;15.82;5.15;;;;;;;;;;5055235;28;20032;-32
2023/01/25 09:16:51;;;;;;;14.45;5.25;;;;;;;;;;5055478;28;20364;-29
2023/01/25 09:19:17;;;;;;;13.15;6.82;;;;;;;;;;5055173;28;20498;-31
2023/01/25 09:21:43;;;;;;;18.63;6.63;;;;;;;;;;5055132;28;20114;-31
2023/01/25 09:24:09;;;;;;;17.42;6.70;;;;;;;;;;5055361;28;20055;-30
2023/01/25 09:26:39;;;;;;;21.40;7.45;;;;;;;;;;5054988;28;20032;-32
2023/01/25 09:29:06;;;;;;;12.88;6.78;;;;;;;;;;5054984;28;20341;-31
2023/01/25 09:31:33;;;;;;;12.88;5.85;;;;;;;;;;5055281;28;20049;-31
2023/01/25 09:33:59;;;;;;;23.40;6.53;;;;;;;;;;5054824;28;20104;-31
2023/01/25 09:36:25;;;;;;;17.42;6.40;;;;;;;;;;5054913;28;20021;-32
2023/01/25 09:38:52;;;;;;;12.02;6.68;;;;;;;;;;5054939;28;20072;-32
2023/01/25 09:41:27;;;;;;;17.50;6.15;;;;;;;;;;5054927;28;20048;-32
2023/01/25 09:43:59;;;;;;;12.43;6.40;;;;;;;;;;5054821;28;20037;-32
2023/01/25 09:46:40;;;;;;;19.17;7.95;;;;;;;;;;5054900;28;20456;-33
2023/01/25 09:49:18;;;;;;;24.02;6.88;;;;;;;;;;5054872;28;20035;-30
2023/01/25 09:51:56;;;;;;;15.95;5.40;;;;;;;;;;5054706;28;20369;-31
2023/01/25 09:54:23;;;;;;;12.35;5.22;;;;;;;;;;5054841;28;20392;-30
2023/01/25 09:56:50;;;;;;;16.38;5.45;;;;;;;;;;5054635;28;20033;-30
2023/01/25 09:59:19;;;;;;;14.05;5.85;;;;;;;;;;5055065;28;20082;-31
2023/01/25 10:01:57;;;;;;;17.50;5.95;;;;;;;;;;5054526;28;20472;-31
2023/01/25 10:04:28;;;;;;;13.00;6.90;;;;;;;;;;5054436;28;20060;-31
2023/01/25 10:06:59;;;;;;;13.45;6.32;;;;;;;;;;5054536;28;20033;-32
2023/01/25 10:09:31;;;;;;;13.77;5.32;;;;;;;;;;5054575;28;20032;-32
2023/01/25 10:12:05;;;;;;;11.73;5.75;;;;;;;;;;5054657;28;20025;-31
2023/01/25 10:14:34;;;;;;;9.88;5.25;;;;;;;;;;5054408;28;20025;-31
2023/01/25 10:17:19;;;;;;;7.90;4.68;;;;;;;;;;5054764;28;20108;-31
2023/01/25 10:19:54;;;;;;;8.70;4.97;;;;;;;;;;5054737;28;20356;-31
2023/01/25 10:22:21;;;;;;;12.13;5.00;;;;;;;;;;5054347;28;20029;-32
2023/01/25 10:25:10;;;;;;;9.93;5.78;;;;;;;;;;5054327;28;20040;-31
2023/01/25 10:27:55;;;;;;;18.65;5.88;;;;;;;;;;5036661;28;20025;-32
2023/01/25 10:30:25;;;;;;;10.02;6.13;;;;;;;;;;5054452;28;20057;-31
2023/01/25 10:32:52;;;;;;;15.73;6.57;;;;;;;;;;5054393;28;20075;-30
2023/01/25 10:35:20;;;;;;;14.90;6.50;;;;;;;;;;5054864;28;20437;-31
2023/01/25 10:37:47;;;;;;;19.92;8.40;;;;;;;;;;5054390;28;20376;-31
2023/01/25 10:40:17;;;;;;;13.48;7.40;;;;;;;;;;5054376;28;20094;-31
2023/01/25 10:43:03;;;;;;;10.80;7.35;;;;;;;;;;5054226;28;20341;-31
2023/01/25 10:45:30;;;;;;;16.25;6.68;;;;;;;;;;5054249;28;20319;-31
2023/01/25 10:48:02;;;;;;;11.45;8.25;;;;;;;;;;5054141;28;20036;-31
2023/01/25 10:50:46;;;;;;;10.60;6.78;;;;;;;;;;5054097;28;20025;-31
2023/01/25 10:53:32;;;;;;;11.65;6.13;;;;;;;;;;5054244;28;20029;-31
2023/01/25 10:56:00;;;;;;;13.20;6.07;;;;;;;;;;5054408;28;20100;-31
2023/01/25 10:58:37;;;;;;;16.08;5.53;;;;;;;;;;5053992;28;20028;-32
2023/01/25 11:01:05;;;;;;;11.57;6.22;;;;;;;;;;5054297;28;20430;-30
2023/01/25 11:03:39;;;;;;;15.05;6.18;;;;;;;;;;5053783;28;20388;-31
2023/01/25 11:06:07;;;;;;;20.60;6.38;;;;;;;;;;5053906;28;20027;-31
2023/01/25 11:08:35;;;;;;;15.65;5.50;;;;;;;;;;5054452;28;20086;-32
2023/01/25 11:11:12;;;;;;;8.65;5.28;;;;;;;;;;5053854;28;20025;-32
2023/01/25 11:13:40;;;;;;;19.10;7.35;;;;;;;;;;5053866;28;20089;-32
2023/01/25 11:16:16;;;;;;;15.10;6.47;;;;;;;;;;5054154;28;20072;-32
2023/01/25 11:19:02;;;;;;;23.85;6.03;;;;;;;;;;5054096;28;20059;-31
2023/01/25 11:21:33;;;;;;;25.38;6.25;;;;;;;;;;5056706;28;20112;-31
2023/01/25 11:24:08;;;;;;;19.15;4.90;;;;;;;;;;5057678;28;20541;-32
2023/01/25 11:26:36;;;;;;;14.48;6.10;;;;;;;;;;5057409;28;20029;-30
2023/01/25 11:29:21;;;;;;;20.95;5.85;;;;;;;;;;5057663;28;20098;-31
2023/01/25 11:31:49;;;;;;;8.13;4.95;;;;;;;;;;5057514;28;20021;-30
2023/01/25 11:34:16;;;;;;;10.45;5.22;;;;;;;;;;5057484;28;20037;-31
2023/01/25 11:36:50;;;;;;;10.57;5.10;;;;;;;;;;5057255;28;20400;-31
2023/01/25 11:39:35;;;;;;;14.85;5.20;;;;;;;;;;5057157;28;20029;-31
2023/01/25 11:42:04;;;;;;;14.93;4.72;;;;;;;;;;5057545;28;20030;-30
2023/01/25 11:44:33;;;;;;;18.83;5.38;;;;;;;;;;5057087;28;20029;-31
2023/01/25 11:47:15;;;;;;;18.75;5.03;;;;;;;;;;5057389;28;20023;-30
2023/01/25 11:49:59;;;;;;;11.50;4.95;;;;;;;;;;5057355;28;20025;-31
2023/01/25 11:52:43;;;;;;;21.52;5.63;;;;;;;;;;5057733;28;20052;-30
2023/01/25 11:55:24;;;;;;;23.35;5.13;;;;;;;;;;5056825;28;20119;-30
2023/01/25 11:57:50;;;;;;;;;;;;;;;;;;5057244;28;20029;-32
2023/01/25 12:00:31;;;;;;;19.75;5.68;;;;;;;;;;5056800;28;19916;-31
2023/01/25 12:03:01;;;;;;;11.27;4.95;;;;;;;;;;5056673;28;20116;-31
2023/01/25 12:05:47;;;;;;;14.13;7.07;;;;;;;;;;5056700;28;20049;-31
2023/01/25 12:08:32;;;;;;;19.05;6.80;;;;;;;;;;5016671;28;20052;-32
2023/01/25 12:11:08;;;;;;;12.60;5.60;;;;;;;;;;5056679;28;20115;-31
2023/01/25 12:13:34;;;;;;;13.25;5.20;;;;;;;;;;5057008;28;20025;-30
2023/01/25 12:16:14;;;;;;;9.70;5.57;;;;;;;;;;5056520;28;20051;-30
2023/01/25 12:18:40;;;;;;;16.67;5.63;;;;;;;;;;5056802;28;20353;-30
2023/01/25 12:21:10;;;;;;;27.42;7.38;;;;;;;;;;5056383;28;20017;-31
2023/01/25 12:23:51;;;;;;;23.88;6.90;;;;;;;;;;5056386;28;20102;-31
2023/01/25 12:26:26;;;;;;;26.77;7.93;;;;;;;;;;5038949;28;20025;-32
2023/01/25 12:28:52;;;;;;;18.55;7.18;;;;;;;;;;5056240;28;20521;-31
2023/01/25 12:31:47;;;;;;;17.20;6.78;;;;;;;;;;5056098;28;20099;-31
2023/01/25 12:34:16;;;;;;;21.60;6.38;;;;;;;;;;5039060;28;20463;-32
2023/01/25 12:36:47;;;;;;;18.38;7.10;;;;;;;;;;5056335;28;20031;-32
2023/01/25 12:39:24;;;;;;;15.60;5.95;;;;;;;;;;5056004;28;20029;-32
2023/01/25 12:42:09;;;;;;;16.45;6.32;;;;;;;;;;5055980;28;20466;-31
2023/01/25 12:44:40;;;;;;;17.25;6.20;;;;;;;;;;5055897;28;20061;-32
2023/01/25 12:47:09;;;;;;;12.88;5.10;;;;;;;;;;5056224;28;20025;-31
2023/01/25 12:49:42;;;;;;;12.57;6.97;;;;;;;;;;5055862;28;20469;-29
2023/01/25 12:52:27;;;;;;;10.93;5.70;;;;;;;;;;5055749;28;20227;-31
2023/01/25 12:54:56;;;;;;;14.45;5.60;;;;;;;;;;5055877;28;20341;-30
2023/01/25 12:57:51;;;;;;;12.88;5.40;;;;;;;;;;5055960;28;20021;-31
2023/01/25 13:00:28;;;;;;;17.92;6.38;;;;;;;;;;5038678;28;20041;-31
2023/01/25 13:02:55;;;;;;;17.33;6.03;;;;;;;;;;5055512;28;20367;-31
2023/01/25 13:05:47;;;;;;;11.23;6.05;;;;;;;;;;5055766;28;20041;-31
2023/01/25 13:08:19;;;;;;;16.15;6.07;;;;;;;;;;5025430;28;20182;-31
2023/01/25 13:10:48;;;;;;;9.55;5.45;;;;;;;;;;5055374;28;20468;-30
2023/01/25 13:13:20;;;;;;;12.30;6.53;;;;;;;;;;5055619;28;20071;-31
2023/01/25 13:15:47;;;;;;;12.35;5.50;;;;;;;;;;5055343;28;20108;-31
2023/01/25 13:18:28;;;;;;;9.77;5.70;;;;;;;;;;5055306;28;20033;-31
2023/01/25 13:21:05;;;;;;;10.38;6.72;;;;;;;;;;5037736;28;20108;-31
2023/01/25 13:23:31;;;;;;;12.05;7.28;;;;;;;;;;5055492;28;20025;-31
2023/01/25 13:26:17;;;;;;;22.38;8.23;;;;;;;;;;5055450;28;20083;-31
2023/01/25 13:28:45;;;;;;;10.82;6.35;;;;;;;;;;5015310;28;20090;-31
2023/01/25 13:31:31;;;;;;;23.67;8.55;;;;;;;;;;5055180;28;20071;-31
2023/01/25 13:33:59;;;;;;;12.13;7.45;;;;;;;;;;5054771;28;20090;-30
2023/01/25 13:36:40;;;;;;;15.70;7.60;;;;;;;;;;5055332;28;20379;-30
2023/01/25 13:39:06;;;;;;;;;;;;;;;;;;5055519;28;20032;-31
2023/01/25 13:41:32;;;;;;;18.98;7.50;;;;;;;;;;5055049;28;20328;-30
2023/01/25 13:44:12;;;;;;;11.20;5.78;;;;;;;;;;5054055;28;20089;-30
2023/01/25 13:46:39;;;;;;;11.35;5.60;;;;;;;;;;5054630;28;20048;-31
2023/01/25 13:49:07;;;;;;;8.25;6.22;;;;;;;;;;5054627;28;20050;-30
2023/01/25 13:51:34;;;;;;;20.05;6.10;;;;;;;;;;5054822;28;20041;-31
2023/01/25 13:54:01;;;;;;;11.90;5.63;;;;;;;;;;5054297;28;20061;-30
2023/01/25 13:56:29;;;;;;;11.90;5.50;;;;;;;;;;5054458;28;20028;-31
2023/01/25 13:58:55;;;;;;;10.13;5.40;;;;;;;;;;5054417;28;20032;-30
2023/01/25 14:01:22;;;;;;;14.52;6.07;;;;;;;;;;5036865;28;20035;-31
2023/01/25 14:03:58;;;;;;;15.10;6.10;;;;;;;;;;5054125;28;20057;-31
2023/01/25 14:06:27;;;;;;;21.15;5.72;;;;;;;;;;5054451;28;20170;-32
2023/01/25 14:08:55;;;;;;;9.60;5.55;;;;;;;;;;5054410;28;20037;-32
2023/01/25 14:11:21;;;;;;;9.50;5.80;;;;;;;;;;5036901;28;20032;-31
2023/01/25 14:14:00;;;;;;;9.02;6.20;;;;;;;;;;5054283;28;20367;-30
2023/01/25 14:16:28;;;;;;;12.80;7.85;;;;;;;;;;5054297;28;20029;-31
2023/01/25 14:18:55;;;;;;;10.77;5.70;;;;;;;;;;5054271;28;20028;-30
2023/01/25 14:21:21;;;;;;;23.50;7.25;;;;;;;;;;5054284;28;20017;-30
2023/01/25 14:23:48;;;;;;;24.70;7.68;;;;;;;;;;5054189;28;20033;-31
2023/01/25 14:26:18;;;;;;;18.17;7.05;;;;;;;;;;5054291;28;20021;-31
2023/01/25 14:28:46;;;;;;;16.02;7.28;;;;;;;;;;5054311;28;20043;-30
2023/01/25 14:31:18;;;;;;;16.55;7.28;;;;;;;;;;5054784;28;20056;-31
2023/01/25 14:33:46;;;;;;;18.10;7.72;;;;;;;;;;5054347;28;20045;-30
2023/01/25 14:36:14;;;;;;;20.27;7.65;;;;;;;;;;5054185;28;20079;-31
2023/01/25 14:38:41;;;;;;;14.50;7.70;;;;;;;;;;5054101;28;20044;-30
2023/01/25 14:41:19;;;;;;;16.58;7.70;;;;;;;;;;5054137;28;20029;-31
2023/01/25 14:43:47;;;;;;;10.27;6.20;;;;;;;;;;5054060;28;20440;-32
2023/01/25 14:46:20;;;;;;;13.73;7.47;;;;;;;;;;5054438;28;20033;-32